Terminal Aerodrome Forecast
Issued by NWS

Home | Current Version | Previous Version | Text Only | Print | Product List | Glossary On
Versions: 1 2 3 4 5 6 7 8 9 10 11 12 13 14 15 16 17 18 19
000
FTUS43 KBIS 261000 AAA
TAFMOT
TAF AMD
KMOT 261004Z 2610/2706 14008KT P6SM OVC015
      TEMPO 2610/2612 5SM -RA BR
     FM262100 18008KT P6SM -SHRA SCT015 OVC035=

USA.gov is the U.S. government's official web portal to all federal, state and local government web resources and services.